createdAt,value
2022-08-29T00:03:15.389Z,96128.06
2022-08-29T00:08:18.779Z,96122.97
2022-08-29T00:13:22.549Z,96118.91
2022-08-29T00:18:27.269Z,96119.09
2022-08-29T00:23:29.885Z,96126.91
2022-08-29T00:28:32.725Z,96131.72
2022-08-29T00:33:38.285Z,96133.28
2022-08-29T00:38:42.206Z,96133.47
2022-08-29T00:43:46.349Z,96136.88
2022-08-29T00:48:56.563Z,96132.00
2022-08-29T00:54:03.069Z,96139.84
2022-08-29T00:59:11.797Z,96146.84
2022-08-29T01:04:23.867Z,96145.78
2022-08-29T01:09:28.174Z,96153.69
2022-08-29T01:14:31.040Z,96158.34
2022-08-29T01:19:45.010Z,96147.22
2022-08-29T01:24:51.716Z,96149.59
2022-08-29T01:29:54.492Z,96150.81
2022-08-29T01:34:57.279Z,96143.88
2022-08-29T01:40:01.554Z,96143.88
2022-08-29T01:45:05.746Z,96134.03
2022-08-29T01:50:15.425Z,96152.31
2022-08-29T01:55:19.687Z,96150.03
2022-08-29T02:00:22.487Z,96153.03
2022-08-29T02:05:25.227Z,96146.63
2022-08-29T02:10:30.373Z,96157.66
2022-08-29T02:15:33.663Z,96141.31
2022-08-29T02:20:36.487Z,96133.78
2022-08-29T02:25:44.180Z,96128.97
2022-08-29T02:30:49.887Z,96150.22
2022-08-29T02:35:56.843Z,96144.44
2022-08-29T02:41:02.017Z,96147.88
2022-08-29T02:46:05.760Z,96158.94
2022-08-29T02:51:08.583Z,96158.00
2022-08-29T02:56:14.338Z,96159.94
2022-08-29T03:01:17.836Z,96144.78
2022-08-29T03:06:21.779Z,96153.97
2022-08-29T03:11:27.056Z,96148.50
2022-08-29T03:16:29.852Z,96152.94
2022-08-29T03:21:33.377Z,96147.06
2022-08-29T03:26:37.903Z,96150.41
2022-08-29T03:31:40.724Z,96151.41
2022-08-29T03:36:43.528Z,96147.00
2022-08-29T03:41:47.910Z,96150.81
2022-08-29T03:46:50.892Z,96149.44
2022-08-29T03:51:53.765Z,96132.38
2022-08-29T03:56:57.900Z,96137.66
2022-08-29T04:02:00.825Z,96145.47
2022-08-29T04:07:05.946Z,96151.72
2022-08-29T04:12:11.426Z,96154.69
2022-08-29T04:17:14.479Z,96157.84
2022-08-29T04:22:17.281Z,96156.69
2022-08-29T04:27:21.681Z,96169.47
2022-08-29T04:32:24.566Z,96180.41
2022-08-29T04:37:27.834Z,96175.38
2022-08-29T04:42:32.093Z,96187.34
2022-08-29T04:47:36.219Z,96196.72
2022-08-29T04:52:39.280Z,96198.00
2022-08-29T04:57:45.077Z,96198.38
2022-08-29T05:02:48.072Z,96203.25
2022-08-29T05:07:50.874Z,96214.41
2022-08-29T05:12:55.012Z,96212.53
2022-08-29T05:17:58.170Z,96217.75
2022-08-29T05:23:00.940Z,96218.69
2022-08-29T05:28:05.506Z,96229.34
2022-08-29T05:33:09.162Z,96231.44
2022-08-29T05:38:12.400Z,96239.25
2022-08-29T05:43:16.552Z,96242.28
2022-08-29T05:48:19.299Z,96244.50
2022-08-29T05:53:22.120Z,96243.97
2022-08-29T05:58:26.524Z,96246.03
2022-08-29T06:03:29.358Z,96247.75
2022-08-29T06:08:32.187Z,96251.97
2022-08-29T06:13:36.385Z,96250.13
2022-08-29T06:18:39.227Z,96255.97
2022-08-29T06:23:43.841Z,96264.25
2022-08-29T06:28:48.075Z,96274.97
2022-08-29T06:33:52.656Z,96277.56
2022-08-29T06:38:57.085Z,96273.72
2022-08-29T06:44:02.479Z,96283.00
2022-08-29T06:49:11.864Z,96283.75
2022-08-29T06:54:14.704Z,96288.78
2022-08-29T06:59:20.696Z,96292.47
2022-08-29T07:04:26.722Z,96293.22
2022-08-29T07:09:31.031Z,96290.47
2022-08-29T07:14:35.321Z,96292.47
2022-08-29T07:19:38.079Z,96290.78
2022-08-29T07:24:41.095Z,96296.66
2022-08-29T07:29:50.056Z,96294.13
2022-08-29T07:34:56.091Z,96298.50
2022-08-29T07:39:59.248Z,96297.59
2022-08-29T07:45:03.430Z,96300.72
2022-08-29T07:50:09.536Z,96292.25
2022-08-29T07:55:12.364Z,96289.25
2022-08-29T08:00:16.801Z,96291.72
2022-08-29T08:05:19.761Z,96292.56
2022-08-29T08:10:23.866Z,96295.44
2022-08-29T08:15:28.234Z,96288.31
2022-08-29T08:20:31.140Z,96293.81
2022-08-29T08:25:33.876Z,96294.06
2022-08-29T08:30:38.167Z,96281.78
2022-08-29T08:35:42.583Z,96278.91
2022-08-29T08:40:50.574Z,96279.69
2022-08-29T08:45:56.291Z,96275.97
2022-08-29T08:51:04.836Z,96285.13
2022-08-29T08:56:14.108Z,96282.66
2022-08-29T09:01:23.948Z,96277.06
2022-08-29T09:06:56.421Z,96291.22
2022-08-29T09:12:10.132Z,96280.72
2022-08-29T09:17:21.609Z,96278.41
2022-08-29T09:22:27.463Z,96285.06
2022-08-29T09:27:37.096Z,96280.91
2022-08-29T09:33:00.743Z,96279.69
2022-08-29T09:38:05.921Z,96281.47
2022-08-29T09:43:08.921Z,96275.25
2022-08-29T09:48:17.810Z,96270.53
2022-08-29T09:53:25.329Z,96263.00
2022-08-29T09:58:34.240Z,96272.25
2022-08-29T10:03:45.000Z,96261.94
2022-08-29T10:08:59.698Z,96263.22
2022-08-29T10:14:07.386Z,96253.78
2022-08-29T10:19:34.191Z,96251.28
2022-08-29T10:24:55.071Z,96248.81
2022-08-29T10:30:06.563Z,96248.22
2022-08-29T10:35:18.147Z,96239.50
2022-08-29T10:40:27.277Z,96226.34
2022-08-29T10:45:39.806Z,96223.25
2022-08-29T10:51:07.804Z,96222.22
2022-08-29T10:56:18.744Z,96216.47
2022-08-29T11:01:38.119Z,96208.41
2022-08-29T11:06:47.522Z,96205.19
2022-08-29T11:12:03.348Z,96203.38
2022-08-29T11:17:13.815Z,96203.66
2022-08-29T11:22:23.540Z,96203.50
2022-08-29T11:27:37.697Z,96206.19
2022-08-29T11:32:51.740Z,96193.34
2022-08-29T11:38:30.084Z,96192.59
2022-08-29T11:43:38.050Z,96186.09
2022-08-29T11:48:43.567Z,96193.06
2022-08-29T11:53:48.578Z,96182.13
2022-08-29T11:58:53.829Z,96166.50
2022-08-29T12:03:57.803Z,96159.38
2022-08-29T12:09:13.375Z,96155.13
2022-08-29T12:14:34.243Z,96151.16
2022-08-29T12:19:48.376Z,96144.91
2022-08-29T12:24:57.413Z,96132.72
2022-08-29T12:30:01.007Z,96137.31
2022-08-29T12:35:21.591Z,96140.34
2022-08-29T12:40:58.087Z,96129.63
2022-08-29T12:46:03.785Z,96130.72
2022-08-29T12:51:07.179Z,96131.84
2022-08-29T12:56:18.969Z,96127.19
2022-08-29T13:01:27.941Z,96127.09
2022-08-29T13:06:31.689Z,96114.06
2022-08-29T13:11:36.006Z,96116.53
2022-08-29T13:16:40.148Z,96108.81
2022-08-29T13:21:43.902Z,96104.53
2022-08-29T13:27:01.059Z,96097.84
2022-08-29T13:32:19.358Z,96086.28
2022-08-29T13:37:30.199Z,96091.72
2022-08-29T13:42:34.477Z,96085.34
2022-08-29T13:47:51.225Z,96074.06
2022-08-29T13:52:55.500Z,96068.16
2022-08-29T13:57:59.740Z,96076.19
2022-08-29T14:03:03.287Z,96064.56
2022-08-29T14:08:07.637Z,96062.97
2022-08-29T14:13:12.194Z,96052.91
2022-08-29T14:18:16.236Z,96046.31
2022-08-29T14:23:23.155Z,96038.69
2022-08-29T14:28:27.594Z,96030.56
2022-08-29T14:33:30.401Z,96029.00
2022-08-29T14:38:33.228Z,96018.28
2022-08-29T14:43:39.861Z,96018.94
2022-08-29T14:48:42.925Z,96004.72
2022-08-29T14:53:54.154Z,96007.94
2022-08-29T14:58:59.288Z,96010.13
2022-08-29T15:04:02.089Z,96013.38
2022-08-29T15:09:05.178Z,96008.63
2022-08-29T15:14:09.433Z,96013.09
2022-08-29T15:19:48.776Z,96016.94
2022-08-29T15:24:35.325Z,96010.56
2022-08-29T15:29:40.878Z,96013.97
2022-08-29T15:34:43.814Z,96012.63
2022-08-29T15:39:46.841Z,96015.13
2022-08-29T15:44:51.440Z,96010.94
2022-08-29T15:49:55.935Z,96007.50
2022-08-29T15:54:58.717Z,95999.63
2022-08-29T16:00:03.153Z,95997.09
2022-08-29T16:21:29.193Z,95995.50
2022-08-29T16:26:33.329Z,95991.66
2022-08-29T16:31:37.417Z,95992.09
2022-08-29T16:36:42.362Z,95993.56
2022-08-29T16:41:45.526Z,95978.91
2022-08-29T16:46:48.332Z,95980.78
2022-08-29T16:51:53.205Z,95979.81
2022-08-29T16:56:56.973Z,95985.28
2022-08-29T17:01:59.750Z,95983.97
2022-08-29T17:07:04.182Z,95985.53
2022-08-29T17:12:06.330Z,95980.53
2022-08-29T17:17:09.741Z,95981.72
2022-08-29T17:22:18.068Z,95969.22
2022-08-29T17:27:22.714Z,95973.81
2022-08-29T17:32:26.736Z,95968.91
2022-08-29T17:37:35.898Z,95974.75
2022-08-29T17:42:39.130Z,95974.16
2022-08-29T17:47:41.897Z,95979.84
2022-08-29T17:52:46.121Z,95986.94
2022-08-29T17:57:49.004Z,95999.84
2022-08-29T18:02:52.268Z,95998.16
2022-08-29T18:07:56.907Z,95992.41
2022-08-29T18:12:59.849Z,95997.59
2022-08-29T18:18:02.614Z,96003.13
2022-08-29T18:23:06.792Z,95997.09
2022-08-29T18:28:09.573Z,96017.25
2022-08-29T18:33:13.017Z,96011.03
2022-08-29T18:38:17.661Z,96017.19
2022-08-29T18:43:21.491Z,96024.00
2022-08-29T18:48:29.009Z,96020.97
2022-08-29T18:53:33.797Z,96024.63
2022-08-29T18:58:37.555Z,96037.59
2022-08-29T19:03:41.042Z,96040.13
2022-08-29T19:08:45.364Z,96048.44
2022-08-29T19:13:52.340Z,96047.69
2022-08-29T19:18:55.514Z,96051.88
2022-08-29T19:23:59.701Z,96052.41
2022-08-29T19:29:06.605Z,96061.25
2022-08-29T19:34:09.426Z,96067.38
2022-08-29T19:39:13.614Z,96066.13
2022-08-29T19:44:16.193Z,96068.69
2022-08-29T19:49:19.363Z,96071.47
2022-08-29T19:54:23.721Z,96066.22
2022-08-29T19:59:26.506Z,96072.94
2022-08-29T20:04:30.235Z,96077.91
2022-08-29T20:09:34.436Z,96069.38
2022-08-29T20:14:37.121Z,96080.13
2022-08-29T20:19:41.037Z,96081.88
2022-08-29T20:24:45.206Z,96078.63
2022-08-29T20:29:48.061Z,96077.03
2022-08-29T20:34:50.959Z,96082.78
2022-08-29T20:39:55.824Z,96075.00
2022-08-29T20:44:59.998Z,96088.88
2022-08-29T20:50:03.008Z,96085.84
2022-08-29T20:55:07.643Z,96081.00
2022-08-29T21:00:11.807Z,96088.81
2022-08-29T21:31:41.656Z,96114.53
2022-08-29T21:36:44.737Z,96112.22
2022-08-29T21:41:47.680Z,96133.53
2022-08-29T21:46:52.682Z,96140.09
2022-08-29T21:51:56.090Z,96135.47
2022-08-29T21:56:58.942Z,96141.16
2022-08-29T22:02:03.769Z,96149.13
2022-08-29T22:07:07.385Z,96152.81
2022-08-29T22:12:10.807Z,96141.41
2022-08-29T22:17:16.266Z,96147.34
2022-08-29T22:22:19.072Z,96150.84
2022-08-29T22:27:21.843Z,96164.53
2022-08-29T22:32:26.113Z,96158.84
2022-08-29T22:37:36.462Z,96165.56
2022-08-29T22:42:41.760Z,96166.00
2022-08-29T22:47:47.393Z,96176.19
2022-08-29T22:52:50.695Z,96169.69
2022-08-29T22:57:53.447Z,96183.97
2022-08-29T23:02:57.693Z,96185.56
2022-08-29T23:08:00.578Z,96178.22
2022-08-29T23:13:03.347Z,96190.38
2022-08-29T23:18:07.597Z,96189.72
2022-08-29T23:23:10.358Z,96197.88
2022-08-29T23:28:13.153Z,96205.19
2022-08-29T23:33:18.297Z,96196.84
2022-08-29T23:38:22.337Z,96208.63
2022-08-29T23:43:25.559Z,96207.78
2022-08-29T23:48:30.472Z,96201.66
2022-08-29T23:53:33.269Z,96207.03
2022-08-29T23:58:36.190Z,96199.38
